createdAt,value
2018-09-12T00:01:18.132Z,1012.72
2018-09-12T00:02:18.067Z,1012.70
2018-09-12T00:04:11.396Z,1012.69
2018-09-12T00:05:11.347Z,1012.69
2018-09-12T00:07:04.672Z,1012.70
2018-09-12T00:08:04.623Z,1012.66
2018-09-12T00:09:57.944Z,1012.66
2018-09-12T00:10:57.898Z,1012.64
2018-09-12T00:12:51.229Z,1012.64
2018-09-12T00:13:51.184Z,1012.64
2018-09-12T00:15:44.514Z,1012.64
2018-09-12T00:16:44.461Z,1012.64
2018-09-12T00:18:37.268Z,1012.61
2018-09-12T00:19:37.235Z,1012.62
2018-09-12T00:21:30.552Z,1012.58
2018-09-12T00:22:30.517Z,1012.57
2018-09-12T00:24:23.824Z,1012.56
2018-09-12T00:25:23.783Z,1012.60
2018-09-12T00:27:17.113Z,1012.52
2018-09-12T00:28:17.072Z,1012.53
2018-09-12T00:30:10.374Z,1012.50
2018-09-12T00:31:10.337Z,1012.49
2018-09-12T00:33:03.674Z,1012.50
2018-09-12T00:34:03.628Z,1012.49
2018-09-12T00:35:56.937Z,1012.49
2018-09-12T00:36:56.911Z,1012.49
2018-09-12T00:38:50.225Z,1012.48
2018-09-12T00:39:50.183Z,1012.48
2018-09-12T00:41:43.498Z,1012.46
2018-09-12T00:42:43.460Z,1012.47
2018-09-12T00:44:36.758Z,1012.46
2018-09-12T00:45:36.722Z,1012.45
2018-09-12T00:47:30.086Z,1012.44
2018-09-12T00:48:29.998Z,1012.40
2018-09-12T00:50:23.308Z,1012.38
2018-09-12T00:51:23.280Z,1012.33
2018-09-12T00:53:16.604Z,1012.33
2018-09-12T00:54:16.553Z,1012.32
2018-09-12T00:56:09.868Z,1012.30
2018-09-12T00:57:09.841Z,1012.30
2018-09-12T00:59:03.155Z,1012.28
2018-09-12T01:00:03.100Z,1012.26
2018-09-12T01:01:56.421Z,1012.25
2018-09-12T01:02:56.394Z,1012.25
2018-09-12T01:04:49.685Z,1012.24
2018-09-12T01:05:49.664Z,1012.19
2018-09-12T01:07:42.975Z,1012.20
2018-09-12T01:08:42.935Z,1012.16
2018-09-12T01:10:36.235Z,1012.16
2018-09-12T01:11:36.206Z,1012.15
2018-09-12T01:13:29.532Z,1012.15
2018-09-12T01:14:29.503Z,1012.12
2018-09-12T01:16:22.786Z,1012.18
2018-09-12T01:17:22.764Z,1012.16
2018-09-12T01:19:16.086Z,1012.14
2018-09-12T01:20:16.030Z,1012.16
2018-09-12T01:22:09.346Z,1012.12
2018-09-12T01:23:09.317Z,1012.10
2018-09-12T01:25:02.626Z,1012.16
2018-09-12T01:26:02.581Z,1012.11
2018-09-12T01:27:55.905Z,1012.14
2018-09-12T01:28:55.868Z,1012.16
2018-09-12T01:30:49.232Z,1012.15
2018-09-12T01:31:49.152Z,1012.14
2018-09-12T01:33:42.452Z,1012.15
2018-09-12T01:34:42.420Z,1012.16
2018-09-12T01:36:35.720Z,1012.16
2018-09-12T01:38:49.036Z,1012.16
2018-09-12T01:39:48.981Z,1012.13
2018-09-12T01:41:42.293Z,1012.09
2018-09-12T01:42:42.257Z,1012.01
2018-09-12T01:44:35.582Z,1012.01
2018-09-12T01:45:35.545Z,1012.02
2018-09-12T01:47:28.844Z,1011.95
2018-09-12T01:48:28.796Z,1011.97
2018-09-12T01:50:22.143Z,1011.95
2018-09-12T01:51:22.084Z,1011.92
2018-09-12T01:53:15.403Z,1011.92
2018-09-12T01:54:15.346Z,1011.91
2018-09-12T01:56:08.666Z,1011.91
2018-09-12T01:57:08.634Z,1011.92
2018-09-12T01:59:01.935Z,1011.90
2018-09-12T02:00:01.916Z,1011.87
2018-09-12T02:01:55.219Z,1011.86
2018-09-12T02:02:55.176Z,1011.86
2018-09-12T02:04:48.477Z,1011.84
2018-09-12T02:05:48.443Z,1011.84
2018-09-12T02:07:41.741Z,1011.85
2018-09-12T02:08:41.718Z,1011.87
2018-09-12T02:10:35.049Z,1011.91
2018-09-12T02:11:34.976Z,1011.85
2018-09-12T02:13:28.296Z,1011.83
2018-09-12T02:14:28.254Z,1011.81
2018-09-12T02:16:21.588Z,1011.80
2018-09-12T02:17:21.542Z,1011.79
2018-09-12T02:19:14.864Z,1011.85
2018-09-12T02:20:14.824Z,1011.86
2018-09-12T02:22:08.149Z,1011.88
2018-09-12T02:23:08.098Z,1011.85
2018-09-12T02:25:01.414Z,1011.88
2018-09-12T02:26:01.375Z,1011.84
2018-09-12T02:27:54.687Z,1011.84
2018-09-12T02:28:54.638Z,1011.83
2018-09-12T02:30:47.953Z,1011.83
2018-09-12T02:31:47.914Z,1011.82
2018-09-12T02:33:41.208Z,1011.77
2018-09-12T02:34:41.183Z,1011.74
2018-09-12T02:36:34.012Z,1011.76
2018-09-12T02:37:33.959Z,1011.76
2018-09-12T02:39:27.285Z,1011.73
2018-09-12T02:40:27.232Z,1011.74
2018-09-12T02:42:20.548Z,1011.73
2018-09-12T02:43:20.504Z,1011.73
2018-09-12T02:45:13.985Z,1011.76
2018-09-12T02:46:13.788Z,1011.75
2018-09-12T02:48:07.100Z,1011.72
2018-09-12T02:49:07.052Z,1011.70
2018-09-12T02:51:00.383Z,1011.73
2018-09-12T02:52:00.314Z,1011.74
2018-09-12T02:53:53.624Z,1011.69
2018-09-12T02:54:53.583Z,1011.67
2018-09-12T02:56:46.897Z,1011.66
2018-09-12T02:57:46.857Z,1011.66
2018-09-12T02:59:40.162Z,1011.65
2018-09-12T03:00:40.125Z,1011.67
2018-09-12T03:02:33.464Z,1011.64
2018-09-12T03:03:33.408Z,1011.61
2018-09-12T03:05:26.743Z,1011.58
2018-09-12T03:06:26.709Z,1011.61
2018-09-12T03:08:20.029Z,1011.57
2018-09-12T03:09:19.971Z,1011.57
2018-09-12T03:11:13.285Z,1011.57
2018-09-12T03:12:13.240Z,1011.53
2018-09-12T03:14:06.561Z,1011.52
2018-09-12T03:15:06.528Z,1011.53
2018-09-12T03:16:59.831Z,1011.50
2018-09-12T03:17:59.789Z,1011.53
2018-09-12T03:19:53.088Z,1011.45
2018-09-12T03:20:53.172Z,1011.43
2018-09-12T03:22:46.387Z,1011.44
2018-09-12T03:23:46.331Z,1011.44
2018-09-12T03:25:39.647Z,1011.46
2018-09-12T03:26:39.606Z,1011.46
2018-09-12T03:28:32.920Z,1011.50
2018-09-12T03:29:32.879Z,1011.50
2018-09-12T03:31:26.191Z,1011.56
2018-09-12T03:32:26.157Z,1011.54
2018-09-12T03:34:19.471Z,1011.57
2018-09-12T03:35:19.422Z,1011.58
2018-09-12T03:37:12.738Z,1011.60
2018-09-12T03:38:12.707Z,1011.58
2018-09-12T03:40:06.036Z,1011.61
2018-09-12T03:41:05.980Z,1011.63
2018-09-12T03:42:59.281Z,1011.64
2018-09-12T03:43:59.246Z,1011.64
2018-09-12T03:45:52.573Z,1011.57
2018-09-12T03:46:52.516Z,1011.57
2018-09-12T03:48:45.834Z,1011.55
2018-09-12T03:49:45.798Z,1011.52
2018-09-12T03:51:39.103Z,1011.47
2018-09-12T03:52:39.072Z,1011.47
2018-09-12T03:54:32.405Z,1011.43
2018-09-12T03:55:32.347Z,1011.40
2018-09-12T03:57:25.667Z,1011.43
2018-09-12T03:58:25.627Z,1011.41
2018-09-12T04:00:19.000Z,1011.44
2018-09-12T04:01:18.907Z,1011.41
2018-09-12T04:03:12.213Z,1011.44
2018-09-12T04:04:12.177Z,1011.43
2018-09-12T04:06:05.492Z,1011.41
2018-09-12T04:07:05.448Z,1011.38
2018-09-12T04:08:58.274Z,1011.40
2018-09-12T04:09:58.229Z,1011.40
2018-09-12T04:11:51.035Z,1011.37
2018-09-12T04:12:51.002Z,1011.36
2018-09-12T04:14:44.332Z,1011.39
2018-09-12T04:15:44.289Z,1011.38
2018-09-12T04:17:37.582Z,1011.39
2018-09-12T04:18:37.553Z,1011.38
2018-09-12T04:20:30.874Z,1011.39
2018-09-12T04:21:30.834Z,1011.39
2018-09-12T04:23:24.134Z,1011.38
2018-09-12T04:24:24.173Z,1011.41
2018-09-12T04:26:17.417Z,1011.37
2018-09-12T04:27:17.370Z,1011.40
2018-09-12T04:29:10.695Z,1011.42
2018-09-12T04:30:10.645Z,1011.37
2018-09-12T04:32:03.969Z,1011.36
2018-09-12T04:33:03.923Z,1011.36
2018-09-12T04:34:57.242Z,1011.31
2018-09-12T04:35:57.220Z,1011.32
2018-09-12T04:37:50.535Z,1011.32
2018-09-12T04:38:50.494Z,1011.32
2018-09-12T04:40:43.809Z,1011.32
2018-09-12T04:41:43.764Z,1011.34
2018-09-12T04:43:37.076Z,1011.38
2018-09-12T04:44:37.026Z,1011.34
2018-09-12T04:46:30.344Z,1011.37
2018-09-12T04:47:30.308Z,1011.36
2018-09-12T04:49:23.594Z,1011.38
2018-09-12T04:50:23.560Z,1011.35
2018-09-12T04:52:16.395Z,1011.34
2018-09-12T04:53:16.341Z,1011.33
2018-09-12T04:55:09.644Z,1011.33
2018-09-12T04:56:09.618Z,1011.32
2018-09-12T04:58:02.929Z,1011.30
2018-09-12T04:59:02.892Z,1011.32
2018-09-12T05:00:56.206Z,1011.28
2018-09-12T05:01:56.151Z,1011.29
2018-09-12T05:03:49.476Z,1011.29
2018-09-12T05:04:49.427Z,1011.32
2018-09-12T05:06:42.793Z,1011.33
2018-09-12T05:07:42.717Z,1011.36
2018-09-12T05:09:36.025Z,1011.36
2018-09-12T05:10:35.991Z,1011.36
2018-09-12T05:12:28.810Z,1011.37
2018-09-12T05:13:28.760Z,1011.35
2018-09-12T05:15:22.077Z,1011.40
2018-09-12T05:16:22.049Z,1011.39
2018-09-12T05:18:16.369Z,1011.39
2018-09-12T05:19:16.480Z,1011.42
2018-09-12T05:21:09.630Z,1011.42
2018-09-12T05:22:09.599Z,1011.42
2018-09-12T05:24:02.912Z,1011.47
2018-09-12T05:25:02.885Z,1011.44
2018-09-12T05:26:56.219Z,1011.47
2018-09-12T05:27:56.130Z,1011.49
2018-09-12T05:29:49.429Z,1011.44
2018-09-12T05:30:49.395Z,1011.43
2018-09-12T05:32:42.761Z,1011.41
2018-09-12T05:33:42.706Z,1011.45
2018-09-12T05:35:36.030Z,1011.46
2018-09-12T05:36:35.985Z,1011.46
2018-09-12T05:38:29.301Z,1011.48
2018-09-12T05:39:29.258Z,1011.49
2018-09-12T05:41:22.571Z,1011.51
2018-09-12T05:42:22.527Z,1011.50
2018-09-12T05:44:15.841Z,1011.52
2018-09-12T05:45:15.802Z,1011.53
2018-09-12T05:47:09.102Z,1011.53
2018-09-12T05:48:09.057Z,1011.49
2018-09-12T05:50:02.460Z,1011.55
2018-09-12T05:51:02.332Z,1011.57
2018-09-12T05:52:55.652Z,1011.56
2018-09-12T05:53:55.616Z,1011.53
2018-09-12T05:55:48.938Z,1011.53
2018-09-12T05:56:48.883Z,1011.50
2018-09-12T05:58:42.209Z,1011.49
2018-09-12T05:59:42.156Z,1011.46
2018-09-12T06:01:35.466Z,1011.46
2018-09-12T06:02:35.418Z,1011.47
2018-09-12T06:04:28.763Z,1011.46
2018-09-12T06:05:28.697Z,1011.47
2018-09-12T06:07:22.113Z,1011.43
2018-09-12T06:08:21.994Z,1011.46
2018-09-12T06:10:15.329Z,1011.45
2018-09-12T06:11:15.279Z,1011.46
2018-09-12T06:13:08.582Z,1011.49
2018-09-12T06:14:08.571Z,1011.47
2018-09-12T06:16:01.864Z,1011.51
2018-09-12T06:17:01.823Z,1011.50
2018-09-12T06:18:55.143Z,1011.53
2018-09-12T06:19:55.092Z,1011.53
2018-09-12T06:21:48.391Z,1011.54
2018-09-12T06:22:48.343Z,1011.53
2018-09-12T06:24:41.194Z,1011.53
2018-09-12T06:25:41.135Z,1011.52
2018-09-12T06:27:34.459Z,1011.51
2018-09-12T06:28:34.417Z,1011.50
2018-09-12T06:30:27.742Z,1011.52
2018-09-12T06:31:27.695Z,1011.50
2018-09-12T06:33:20.990Z,1011.51
2018-09-12T06:34:20.963Z,1011.54
2018-09-12T06:36:14.274Z,1011.56
2018-09-12T06:37:14.225Z,1011.51
2018-09-12T06:39:07.548Z,1011.52
2018-09-12T06:40:07.494Z,1011.52
2018-09-12T06:42:00.818Z,1011.58
2018-09-12T06:43:00.773Z,1011.58
2018-09-12T06:44:54.085Z,1011.56
2018-09-12T06:45:54.035Z,1011.58
2018-09-12T06:47:47.356Z,1011.59
2018-09-12T06:48:47.317Z,1011.58
2018-09-12T06:50:40.614Z,1011.65
2018-09-12T06:51:40.584Z,1011.63
2018-09-12T06:53:33.920Z,1011.70
2018-09-12T06:54:33.895Z,1011.72
2018-09-12T06:56:27.184Z,1011.71
2018-09-12T06:57:27.130Z,1011.72
2018-09-12T06:59:20.436Z,1011.72
2018-09-12T07:00:20.406Z,1011.71
2018-09-12T07:02:13.730Z,1011.65
2018-09-12T07:03:13.699Z,1011.69
2018-09-12T07:05:06.983Z,1011.67
2018-09-12T07:06:06.954Z,1011.66
2018-09-12T07:08:00.265Z,1011.66
2018-09-12T07:09:00.221Z,1011.66
2018-09-12T07:10:53.551Z,1011.68
2018-09-12T07:11:53.503Z,1011.73
2018-09-12T07:13:46.319Z,1011.72
2018-09-12T07:14:46.270Z,1011.72
2018-09-12T07:16:39.584Z,1011.74
2018-09-12T07:17:39.550Z,1011.75
2018-09-12T07:19:32.864Z,1011.77
2018-09-12T07:20:32.835Z,1011.83
2018-09-12T07:22:26.136Z,1011.85
2018-09-12T07:23:26.096Z,1011.85
2018-09-12T07:25:19.414Z,1011.90
2018-09-12T07:26:19.398Z,1011.90
2018-09-12T07:28:12.706Z,1011.94
2018-09-12T07:29:12.662Z,1011.93
2018-09-12T07:31:05.964Z,1011.92
2018-09-12T07:32:05.935Z,1011.92
2018-09-12T07:33:59.251Z,1011.91
2018-09-12T07:34:59.215Z,1011.94
2018-09-12T07:36:52.516Z,1011.98
2018-09-12T07:37:52.481Z,1011.98
2018-09-12T07:39:45.801Z,1011.99
2018-09-12T07:40:45.761Z,1012.00
2018-09-12T07:42:39.066Z,1012.01
2018-09-12T07:43:39.077Z,1012.01
2018-09-12T07:45:32.357Z,1011.99
2018-09-12T07:46:32.301Z,1011.98
2018-09-12T07:48:25.630Z,1012.01
2018-09-12T07:49:25.595Z,1012.04
2018-09-12T07:51:18.918Z,1012.02
2018-09-12T07:52:18.883Z,1012.05
2018-09-12T07:54:12.205Z,1012.06
2018-09-12T07:55:12.200Z,1012.04
2018-09-12T07:57:05.474Z,1012.06
2018-09-12T07:58:05.429Z,1012.09
2018-09-12T07:59:58.837Z,1012.01
2018-09-12T08:00:58.736Z,1012.03
2018-09-12T08:02:52.052Z,1012.03
2018-09-12T08:03:52.008Z,1012.06
2018-09-12T08:05:45.327Z,1012.01
2018-09-12T08:06:45.288Z,1012.07
2018-09-12T08:08:38.587Z,1012.04
2018-09-12T08:09:38.567Z,1012.01
2018-09-12T08:11:31.877Z,1012.04
2018-09-12T08:12:31.829Z,1012.08
2018-09-12T08:14:25.148Z,1012.05
2018-09-12T08:15:25.116Z,1012.07
2018-09-12T08:17:18.437Z,1012.03
2018-09-12T08:18:18.402Z,1012.03
2018-09-12T08:20:11.700Z,1011.96
2018-09-12T08:21:11.684Z,1012.00
2018-09-12T08:23:04.990Z,1011.98
2018-09-12T08:24:04.947Z,1012.00
2018-09-12T08:25:58.278Z,1012.02
2018-09-12T08:26:58.229Z,1012.00
2018-09-12T08:28:51.537Z,1012.00
2018-09-12T08:29:51.504Z,1012.03
2018-09-12T08:31:44.833Z,1012.03
2018-09-12T08:32:44.784Z,1012.01
2018-09-12T08:34:38.104Z,1012.04
2018-09-12T08:35:38.073Z,1012.06
2018-09-12T08:37:31.403Z,1012.09
2018-09-12T08:38:31.350Z,1012.10
2018-09-12T08:40:24.658Z,1012.11
2018-09-12T08:41:24.637Z,1012.10
2018-09-12T08:43:17.966Z,1012.12
2018-09-12T08:44:17.914Z,1012.11
2018-09-12T08:46:11.249Z,1012.14
2018-09-12T08:47:11.219Z,1012.19
2018-09-12T08:49:04.553Z,1012.18
2018-09-12T08:50:04.503Z,1012.17
2018-09-12T08:51:57.830Z,1012.18
2018-09-12T08:52:57.850Z,1012.22
2018-09-12T08:54:51.093Z,1012.21
2018-09-12T08:55:51.070Z,1012.21
2018-09-12T08:57:44.404Z,1012.21
2018-09-12T08:58:44.349Z,1012.22
2018-09-12T09:00:37.660Z,1012.25
2018-09-12T09:01:37.701Z,1012.21
2018-09-12T09:03:30.955Z,1012.26
2018-09-12T09:04:30.914Z,1012.26
2018-09-12T09:06:24.219Z,1012.30
2018-09-12T09:07:24.186Z,1012.31
2018-09-12T09:09:17.511Z,1012.31
2018-09-12T09:10:17.465Z,1012.27
2018-09-12T09:12:10.790Z,1012.27
2018-09-12T09:13:10.749Z,1012.25
2018-09-12T09:15:04.082Z,1012.21
2018-09-12T09:16:04.044Z,1012.25
2018-09-12T09:17:57.371Z,1012.25
2018-09-12T09:18:57.324Z,1012.24
2018-09-12T09:20:50.632Z,1012.28
2018-09-12T09:21:50.621Z,1012.27
2018-09-12T09:23:44.066Z,1012.33
2018-09-12T09:24:43.891Z,1012.27
2018-09-12T09:26:37.207Z,1012.29
2018-09-12T09:27:37.175Z,1012.28
2018-09-12T09:29:30.531Z,1012.27
2018-09-12T09:30:30.451Z,1012.26
2018-09-12T09:32:23.767Z,1012.34
2018-09-12T09:33:23.739Z,1012.34
2018-09-12T09:35:17.150Z,1012.34
2018-09-12T09:36:17.039Z,1012.32
2018-09-12T09:38:10.341Z,1012.39
2018-09-12T09:39:10.305Z,1012.34
2018-09-12T09:41:03.640Z,1012.44
2018-09-12T09:42:03.601Z,1012.41
2018-09-12T09:43:56.940Z,1012.39
2018-09-12T09:44:56.910Z,1012.39
2018-09-12T09:46:50.213Z,1012.85
2018-09-12T09:47:50.243Z,1012.37
2018-09-12T09:49:43.510Z,1012.39
2018-09-12T09:50:43.460Z,1012.65
2018-09-12T09:52:36.787Z,1012.69
2018-09-12T09:53:36.762Z,1012.89
2018-09-12T09:55:30.086Z,1012.39
2018-09-12T09:56:30.047Z,1012.42
2018-09-12T09:58:23.368Z,1012.40
2018-09-12T09:59:23.321Z,1012.97
2018-09-12T10:01:16.656Z,1012.35
2018-09-12T10:02:16.620Z,1012.39
2018-09-12T10:04:09.951Z,1012.35
2018-09-12T10:05:09.907Z,1013.04
2018-09-12T10:07:03.238Z,1012.96
2018-09-12T10:08:03.192Z,1012.43
2018-09-12T10:09:56.540Z,1012.97
2018-09-12T10:10:56.491Z,1012.94
2018-09-12T10:12:49.816Z,1012.88
2018-09-12T10:13:49.796Z,1012.86
2018-09-12T10:15:43.124Z,1012.47
2018-09-12T10:16:43.082Z,1012.93
2018-09-12T10:18:36.412Z,1012.82
2018-09-12T10:19:36.386Z,1012.89
2018-09-12T10:21:29.730Z,1012.80
2018-09-12T10:22:29.682Z,1012.79
2018-09-12T10:24:23.028Z,1012.75
2018-09-12T10:25:22.992Z,1012.79
2018-09-12T10:27:16.331Z,1012.74
2018-09-12T10:28:16.296Z,1012.81
2018-09-12T10:30:09.636Z,1012.79
2018-09-12T10:31:09.601Z,1012.73
2018-09-12T10:33:02.965Z,1012.81
2018-09-12T10:34:02.915Z,1012.72
2018-09-12T10:35:56.262Z,1012.81
2018-09-12T10:36:56.226Z,1012.74
2018-09-12T10:38:50.579Z,1012.23
2018-09-12T10:39:50.548Z,1012.86
2018-09-12T10:41:43.910Z,1012.05
2018-09-12T10:42:43.858Z,1012.11
2018-09-12T10:44:37.214Z,1012.82
2018-09-12T10:45:37.182Z,1012.90
2018-09-12T10:47:30.553Z,1012.82
2018-09-12T10:48:30.512Z,1012.75
2018-09-12T10:50:23.834Z,1012.74
2018-09-12T10:51:23.813Z,1012.76
2018-09-12T10:53:17.172Z,1012.75
2018-09-12T10:54:17.113Z,1012.64
2018-09-12T10:56:11.467Z,1012.11
2018-09-12T10:57:11.461Z,1012.13
2018-09-12T10:59:04.790Z,1012.81
2018-09-12T11:00:04.735Z,1012.36
2018-09-12T11:01:58.115Z,1012.73
2018-09-12T11:02:58.052Z,1012.04
2018-09-12T11:04:51.397Z,1012.75
2018-09-12T11:05:51.377Z,1012.69
2018-09-12T11:07:44.729Z,1012.66
2018-09-12T11:08:44.720Z,1012.04
2018-09-12T11:10:39.015Z,1012.23
2018-09-12T11:11:39.009Z,1012.85
2018-09-12T11:13:32.340Z,1012.12
2018-09-12T11:14:32.295Z,1012.09
2018-09-12T11:16:25.631Z,1012.76
2018-09-12T11:17:25.610Z,1012.22
2018-09-12T11:19:20.950Z,1012.76
2018-09-12T11:20:20.917Z,1012.78
2018-09-12T11:22:14.245Z,1012.62
2018-09-12T11:23:14.216Z,1012.64
2018-09-12T11:25:07.573Z,1012.05
2018-09-12T11:26:07.538Z,1012.32
2018-09-12T11:28:00.891Z,1012.25
2018-09-12T11:29:00.875Z,1012.63
2018-09-12T11:30:54.180Z,1012.64
2018-09-12T11:31:54.175Z,1012.62
2018-09-12T11:33:47.498Z,1012.10
2018-09-12T11:34:47.454Z,1012.11
2018-09-12T11:36:40.791Z,1012.00
2018-09-12T11:37:40.817Z,1012.02
2018-09-12T11:39:35.137Z,1012.49
2018-09-12T11:40:35.085Z,1012.60
2018-09-12T11:42:28.414Z,1012.53
2018-09-12T11:43:28.398Z,1012.44
2018-09-12T11:45:21.740Z,1012.52
2018-09-12T11:46:21.699Z,1012.42
2018-09-12T11:48:15.036Z,1012.46
2018-09-12T11:49:15.042Z,1012.39
2018-09-12T11:51:08.396Z,1012.40
2018-09-12T11:52:08.381Z,1012.41
2018-09-12T11:54:01.700Z,1012.39
2018-09-12T11:55:01.665Z,1012.44
2018-09-12T11:56:56.016Z,1012.27
2018-09-12T11:57:55.975Z,1012.27
2018-09-12T11:59:49.305Z,1012.29
2018-09-12T12:00:49.276Z,1012.32
2018-09-12T12:02:42.602Z,1012.34
2018-09-12T12:03:42.582Z,1012.42
2018-09-12T12:05:35.932Z,1011.75
2018-09-12T12:06:35.895Z,1012.05
2018-09-12T12:08:29.241Z,1012.42
2018-09-12T12:09:29.210Z,1012.35
2018-09-12T12:11:22.562Z,1012.28
2018-09-12T12:12:22.517Z,1012.09
2018-09-12T12:14:15.878Z,1011.84
2018-09-12T12:15:15.851Z,1012.10
2018-09-12T12:17:09.176Z,1012.15
2018-09-12T12:18:09.148Z,1012.33
2018-09-12T12:20:02.498Z,1011.94
2018-09-12T12:21:02.467Z,1012.27
2018-09-12T12:22:55.800Z,1012.13
2018-09-12T12:23:55.784Z,1012.31
2018-09-12T12:25:49.127Z,1012.33
2018-09-12T12:26:49.087Z,1012.16
2018-09-12T12:28:42.414Z,1012.33
2018-09-12T12:29:42.384Z,1012.17
2018-09-12T12:31:35.738Z,1011.88
2018-09-12T12:32:35.697Z,1011.87
2018-09-12T12:34:29.043Z,1011.88
2018-09-12T12:35:29.052Z,1011.90
2018-09-12T12:37:22.349Z,1012.21
2018-09-12T12:38:22.309Z,1012.18
2018-09-12T12:40:15.648Z,1012.07
2018-09-12T12:41:15.638Z,1012.09
2018-09-12T12:43:08.938Z,1012.15
2018-09-12T12:44:08.917Z,1012.12
2018-09-12T12:46:02.242Z,1012.06
2018-09-12T12:47:02.218Z,1012.01
2018-09-12T12:48:55.539Z,1012.04
2018-09-12T12:49:55.521Z,1012.02
2018-09-12T12:51:48.858Z,1011.88
2018-09-12T12:52:48.822Z,1011.89
2018-09-12T12:54:42.164Z,1011.89
2018-09-12T12:55:42.137Z,1011.88
2018-09-12T12:57:35.469Z,1011.92
2018-09-12T12:58:35.432Z,1011.89
2018-09-12T13:00:28.775Z,1011.85
2018-09-12T13:01:28.730Z,1011.87
2018-09-12T13:03:22.094Z,1011.86
2018-09-12T13:04:22.058Z,1011.87
2018-09-12T13:06:15.418Z,1011.79
2018-09-12T13:07:15.364Z,1011.73
2018-09-12T13:09:08.691Z,1011.76
2018-09-12T13:10:08.664Z,1011.84
2018-09-12T13:12:01.989Z,1011.76
2018-09-12T13:13:01.966Z,1011.71
2018-09-12T13:14:55.296Z,1011.80
2018-09-12T13:15:55.280Z,1011.79
2018-09-12T13:17:48.593Z,1011.76
2018-09-12T13:18:48.565Z,1011.73
2018-09-12T13:20:41.879Z,1011.69
2018-09-12T13:21:41.967Z,1011.67
2018-09-12T13:23:35.181Z,1011.69
2018-09-12T13:24:35.150Z,1011.71
2018-09-12T13:26:28.470Z,1011.67
2018-09-12T13:27:28.592Z,1011.68
2018-09-12T13:29:21.795Z,1011.73
2018-09-12T13:30:21.759Z,1011.78
2018-09-12T13:32:15.098Z,1011.75
2018-09-12T13:33:15.064Z,1011.71
2018-09-12T13:35:08.411Z,1011.67
2018-09-12T13:36:08.360Z,1011.70
2018-09-12T13:38:01.691Z,1011.73
2018-09-12T13:39:01.665Z,1011.78
2018-09-12T13:40:55.006Z,1011.63
2018-09-12T13:41:54.966Z,1011.75
2018-09-12T13:43:48.295Z,1011.75
2018-09-12T13:44:48.261Z,1011.71
2018-09-12T13:46:41.594Z,1011.50
2018-09-12T13:47:41.559Z,1011.51
2018-09-12T13:49:34.915Z,1011.47
2018-09-12T13:50:34.879Z,1011.65
2018-09-12T13:52:28.219Z,1011.66
2018-09-12T13:53:28.191Z,1011.61
2018-09-12T13:55:21.509Z,1011.55
2018-09-12T13:56:21.475Z,1011.59
2018-09-12T13:58:14.814Z,1011.66
2018-09-12T13:59:14.780Z,1011.63
2018-09-12T14:01:08.101Z,1011.60
2018-09-12T14:02:08.073Z,1011.60
2018-09-12T14:04:01.417Z,1011.59
2018-09-12T14:05:01.373Z,1011.57
2018-09-12T14:06:54.691Z,1011.60
2018-09-12T14:07:54.671Z,1011.60
2018-09-12T14:09:48.001Z,1011.55
2018-09-12T14:10:47.966Z,1011.58
2018-09-12T14:12:41.297Z,1011.63
2018-09-12T14:13:41.272Z,1011.62
2018-09-12T14:15:34.606Z,1011.71
2018-09-12T14:16:34.565Z,1011.76
2018-09-12T14:18:27.886Z,1011.59
2018-09-12T14:19:27.920Z,1011.68
2018-09-12T14:21:21.202Z,1011.65
2018-09-12T14:22:21.166Z,1011.67
2018-09-12T14:24:14.485Z,1011.74
2018-09-12T14:25:14.458Z,1011.62
2018-09-12T14:27:07.803Z,1011.62
2018-09-12T14:28:07.753Z,1011.63
2018-09-12T14:30:01.108Z,1011.62
2018-09-12T14:31:01.061Z,1011.62
2018-09-12T14:32:54.390Z,1011.76
2018-09-12T14:33:54.363Z,1011.67
2018-09-12T14:35:47.701Z,1011.76
2018-09-12T14:36:47.663Z,1011.73
2018-09-12T14:38:40.980Z,1011.73
2018-09-12T14:39:40.951Z,1011.70
2018-09-12T14:41:34.284Z,1011.70
2018-09-12T14:42:34.243Z,1011.76
2018-09-12T14:44:27.569Z,1011.67
2018-09-12T14:45:27.543Z,1011.66
2018-09-12T14:47:20.892Z,1011.74
2018-09-12T14:48:20.882Z,1011.72
2018-09-12T14:50:14.179Z,1011.67
2018-09-12T14:51:14.132Z,1011.73
2018-09-12T14:53:07.449Z,1011.73
2018-09-12T14:54:07.428Z,1011.71
2018-09-12T14:56:00.762Z,1011.83
2018-09-12T14:57:00.718Z,1011.86
2018-09-12T14:58:54.042Z,1011.85
2018-09-12T14:59:54.020Z,1011.83
2018-09-12T15:01:47.356Z,1011.81
2018-09-12T15:02:47.308Z,1011.87
2018-09-12T15:04:40.690Z,1011.78
2018-09-12T15:05:40.604Z,1011.87
2018-09-12T15:07:33.938Z,1011.84
2018-09-12T15:08:33.898Z,1011.83
2018-09-12T15:10:27.231Z,1011.82
2018-09-12T15:11:27.185Z,1011.82
2018-09-12T15:13:20.519Z,1011.83
2018-09-12T15:14:20.488Z,1011.79
2018-09-12T15:16:13.800Z,1011.87
2018-09-12T15:17:13.778Z,1011.88
2018-09-12T15:19:07.097Z,1011.85
2018-09-12T15:20:07.044Z,1011.82
2018-09-12T15:22:00.387Z,1011.89
2018-09-12T15:23:00.338Z,1011.89
2018-09-12T15:24:53.654Z,1011.93
2018-09-12T15:25:53.644Z,1011.98
2018-09-12T15:27:46.954Z,1012.03
2018-09-12T15:28:46.920Z,1012.05
2018-09-12T15:30:40.219Z,1012.10
2018-09-12T15:31:40.194Z,1012.09
2018-09-12T15:33:33.543Z,1012.14
2018-09-12T15:34:33.485Z,1012.09
2018-09-12T15:36:26.794Z,1012.07
2018-09-12T15:37:26.773Z,1012.06
2018-09-12T15:39:20.105Z,1012.02
2018-09-12T15:40:20.060Z,1012.01
2018-09-12T15:42:13.375Z,1012.06
2018-09-12T15:43:13.333Z,1012.03
2018-09-12T15:45:06.669Z,1012.05
2018-09-12T15:46:06.650Z,1012.09
2018-09-12T15:47:59.997Z,1012.08
2018-09-12T15:48:59.934Z,1012.08
2018-09-12T15:50:53.248Z,1012.01
2018-09-12T15:51:53.199Z,1012.08
2018-09-12T15:53:46.546Z,1012.08
2018-09-12T15:54:46.493Z,1012.13
2018-09-12T15:56:39.854Z,1012.14
2018-09-12T15:57:39.834Z,1012.12
2018-09-12T15:59:33.112Z,1012.23
2018-09-12T16:00:33.064Z,1012.16
2018-09-12T16:02:26.384Z,1012.17
2018-09-12T16:03:26.360Z,1012.18
2018-09-12T16:05:19.681Z,1012.21
2018-09-12T16:06:19.631Z,1012.19
2018-09-12T16:08:12.946Z,1012.23
2018-09-12T16:09:12.921Z,1012.20
2018-09-12T16:11:06.255Z,1012.19
2018-09-12T16:12:06.201Z,1012.23
2018-09-12T16:13:59.539Z,1012.29
2018-09-12T16:14:59.505Z,1012.28
2018-09-12T16:16:52.887Z,1012.34
2018-09-12T16:17:52.805Z,1012.32
2018-09-12T16:19:46.115Z,1012.35
2018-09-12T16:20:46.124Z,1012.42
2018-09-12T16:22:39.380Z,1012.33
2018-09-12T16:23:39.401Z,1012.35
2018-09-12T16:25:32.672Z,1012.35
2018-09-12T16:26:32.631Z,1012.37
2018-09-12T16:28:25.945Z,1012.41
2018-09-12T16:29:26.482Z,1012.42
2018-09-12T16:31:19.231Z,1012.44
2018-09-12T16:32:19.188Z,1012.37
2018-09-12T16:34:12.516Z,1012.40
2018-09-12T16:35:12.482Z,1012.42
2018-09-12T16:37:07.423Z,1012.40
2018-09-12T16:38:05.767Z,1012.39
2018-09-12T16:39:59.075Z,1012.44
2018-09-12T16:40:59.042Z,1012.40
2018-09-12T16:42:52.377Z,1012.44
2018-09-12T16:43:52.327Z,1012.42
2018-09-12T16:45:45.653Z,1012.44
2018-09-12T16:46:45.607Z,1012.49
2018-09-12T16:48:38.932Z,1012.53
2018-09-12T16:49:38.888Z,1012.54
2018-09-12T16:51:32.287Z,1012.57
2018-09-12T16:52:32.176Z,1012.59
2018-09-12T16:54:25.485Z,1012.61
2018-09-12T16:55:25.462Z,1012.59
2018-09-12T16:57:18.771Z,1012.59
2018-09-12T16:58:18.742Z,1012.59
2018-09-12T17:00:12.048Z,1012.57
2018-09-12T17:01:12.028Z,1012.53
2018-09-12T17:03:05.362Z,1012.58
2018-09-12T17:04:05.317Z,1012.62
2018-09-12T17:05:58.651Z,1012.64
2018-09-12T17:06:58.604Z,1012.66
2018-09-12T17:08:51.903Z,1012.67
2018-09-12T17:09:51.871Z,1012.70
2018-09-12T17:11:45.217Z,1012.76
2018-09-12T17:12:45.163Z,1012.73
2018-09-12T17:14:38.484Z,1012.80
2018-09-12T17:15:38.466Z,1012.82
2018-09-12T17:17:31.805Z,1012.82
2018-09-12T17:18:31.729Z,1012.85
2018-09-12T17:20:25.047Z,1012.80
2018-09-12T17:21:25.022Z,1012.82
2018-09-12T17:23:18.354Z,1012.78
2018-09-12T17:24:18.287Z,1012.82
2018-09-12T17:26:11.602Z,1012.83
2018-09-12T17:27:11.563Z,1012.83
2018-09-12T17:29:04.898Z,1012.85